createdAt,value
2018-06-24T00:00:21.524Z,1017.19
2018-06-24T00:00:47.669Z,1017.18
2018-06-24T00:01:13.800Z,1017.17
2018-06-24T00:01:39.945Z,1017.16
2018-06-24T00:02:06.117Z,1017.14
2018-06-24T00:02:32.272Z,1017.15
2018-06-24T00:02:58.404Z,1017.12
2018-06-24T00:03:24.548Z,1017.12
2018-06-24T00:03:50.687Z,1017.15
2018-06-24T00:04:16.831Z,1017.12
2018-06-24T00:04:42.972Z,1017.11
2018-06-24T00:05:09.109Z,1017.13
2018-06-24T00:05:35.256Z,1017.08
2018-06-24T00:06:01.390Z,1017.11
2018-06-24T00:06:27.557Z,1017.11
2018-06-24T00:06:53.692Z,1017.11
2018-06-24T00:07:19.834Z,1017.07
2018-06-24T00:07:45.966Z,1017.1
2018-06-24T00:08:12.106Z,1017.05
2018-06-24T00:08:38.253Z,1017.05
2018-06-24T00:09:04.392Z,1017.08
2018-06-24T00:09:30.531Z,1017.06
2018-06-24T00:09:56.695Z,1017.06
2018-06-24T00:10:22.863Z,1017.06
2018-06-24T00:10:49.023Z,1017.07
2018-06-24T00:11:15.189Z,1017.04
2018-06-24T00:11:41.331Z,1017.03
2018-06-24T00:12:07.470Z,1017.03
2018-06-24T00:12:33.610Z,1016.99
2018-06-24T00:12:59.760Z,1017.04
2018-06-24T00:13:25.910Z,1017.01
2018-06-24T00:13:52.113Z,1017.01
2018-06-24T00:14:18.231Z,1017.02
2018-06-24T00:14:44.319Z,1017.02
2018-06-24T00:15:10.477Z,1017.02
2018-06-24T00:15:36.645Z,1017
2018-06-24T00:16:02.782Z,1017.01
2018-06-24T00:16:28.916Z,1016.99
2018-06-24T00:16:55.058Z,1017
2018-06-24T00:17:21.187Z,1017.03
2018-06-24T00:17:47.332Z,1017.02
2018-06-24T00:18:13.474Z,1017.03
2018-06-24T00:18:39.609Z,1017
2018-06-24T00:19:05.773Z,1017.02
2018-06-24T00:19:31.918Z,1017.01
2018-06-24T00:19:58.057Z,1016.98
2018-06-24T00:20:24.200Z,1017.03
2018-06-24T00:20:50.359Z,1016.97
2018-06-24T00:21:16.528Z,1016.97
2018-06-24T00:21:42.682Z,1016.98
2018-06-24T00:22:08.819Z,1016.97
2018-06-24T00:22:34.985Z,1016.98
2018-06-24T00:23:01.158Z,1016.95
2018-06-24T00:23:27.296Z,1016.97
2018-06-24T00:23:53.470Z,1016.97
2018-06-24T00:24:19.634Z,1016.98
2018-06-24T00:24:45.769Z,1016.97
2018-06-24T00:25:11.931Z,1016.96
2018-06-24T00:25:38.065Z,1016.94
2018-06-24T00:26:04.208Z,1016.93
2018-06-24T00:26:30.346Z,1016.95
2018-06-24T00:26:56.490Z,1016.93
2018-06-24T00:27:22.634Z,1016.91
2018-06-24T00:27:48.774Z,1016.92
2018-06-24T00:28:14.910Z,1016.87
2018-06-24T00:28:41.055Z,1016.89
2018-06-24T00:29:07.217Z,1016.89
2018-06-24T00:29:33.357Z,1016.87
2018-06-24T00:29:59.494Z,1016.86
2018-06-24T00:30:25.651Z,1016.89
2018-06-24T00:30:51.797Z,1016.87
2018-06-24T00:31:17.950Z,1016.84
2018-06-24T00:31:44.094Z,1016.83
2018-06-24T00:32:10.232Z,1016.86
2018-06-24T00:32:36.367Z,1016.86
2018-06-24T00:33:02.509Z,1016.83
2018-06-24T00:33:28.647Z,1016.85
2018-06-24T00:33:54.807Z,1016.84
2018-06-24T00:34:20.976Z,1016.79
2018-06-24T00:34:47.119Z,1016.84
2018-06-24T00:35:13.263Z,1016.82
2018-06-24T00:35:39.426Z,1016.84
2018-06-24T00:36:05.566Z,1016.83
2018-06-24T00:36:31.760Z,1016.82
2018-06-24T00:36:57.939Z,1016.82
2018-06-24T00:37:24.074Z,1016.8
2018-06-24T00:37:50.211Z,1016.81
2018-06-24T00:38:16.378Z,1016.78
2018-06-24T00:38:42.547Z,1016.8
2018-06-24T00:39:08.671Z,1016.75
2018-06-24T00:39:34.810Z,1016.8
2018-06-24T00:40:00.971Z,1016.77
2018-06-24T00:40:27.115Z,1016.79
2018-06-24T00:40:53.270Z,1016.76
2018-06-24T00:41:19.421Z,1016.8
2018-06-24T00:41:45.607Z,1016.71
2018-06-24T00:42:11.745Z,1016.71
2018-06-24T00:42:37.878Z,1016.7
2018-06-24T00:43:04.021Z,1016.73
2018-06-24T00:43:30.156Z,1016.68
2018-06-24T00:43:56.289Z,1016.68
2018-06-24T00:44:25.608Z,1016.67
2018-06-24T00:44:51.763Z,1016.68
2018-06-24T00:45:17.939Z,1016.65
2018-06-24T00:45:44.084Z,1016.66
2018-06-24T00:46:10.222Z,1016.64
2018-06-24T00:46:36.389Z,1016.65
2018-06-24T00:47:02.529Z,1016.6
2018-06-24T00:47:28.697Z,1016.59
2018-06-24T00:47:54.836Z,1016.58
2018-06-24T00:48:20.977Z,1016.61
2018-06-24T00:48:47.116Z,1016.64
2018-06-24T00:49:13.257Z,1016.59
2018-06-24T00:49:39.397Z,1016.59
2018-06-24T00:50:05.543Z,1016.62
2018-06-24T00:50:31.683Z,1016.59
2018-06-24T00:50:57.843Z,1016.57
2018-06-24T00:51:23.986Z,1016.59
2018-06-24T00:51:50.133Z,1016.55
2018-06-24T00:52:16.267Z,1016.6
2018-06-24T00:52:42.434Z,1016.6
2018-06-24T00:53:08.572Z,1016.58
2018-06-24T00:53:34.727Z,1016.56
2018-06-24T00:54:00.889Z,1016.59
2018-06-24T00:54:27.032Z,1016.58
2018-06-24T00:54:53.195Z,1016.54
2018-06-24T00:55:19.331Z,1016.56
2018-06-24T00:55:45.491Z,1016.55
2018-06-24T00:56:11.631Z,1016.56
2018-06-24T00:56:37.773Z,1016.57
2018-06-24T00:57:03.905Z,1016.56
2018-06-24T00:57:30.042Z,1016.6
2018-06-24T00:57:56.175Z,1016.6
2018-06-24T00:58:22.340Z,1016.61
2018-06-24T00:58:48.484Z,1016.61
2018-06-24T00:59:14.638Z,1016.57
2018-06-24T00:59:40.782Z,1016.57
2018-06-24T01:00:06.922Z,1016.6
2018-06-24T01:00:33.056Z,1016.59
2018-06-24T01:00:59.195Z,1016.58
2018-06-24T01:01:25.333Z,1016.58
2018-06-24T01:01:51.475Z,1016.58
2018-06-24T01:02:17.638Z,1016.59
2018-06-24T01:02:43.786Z,1016.6
2018-06-24T01:03:09.942Z,1016.59
2018-06-24T01:03:36.083Z,1016.6
2018-06-24T01:04:02.244Z,1016.58
2018-06-24T01:04:28.387Z,1016.55
2018-06-24T01:04:54.526Z,1016.57
2018-06-24T01:05:20.680Z,1016.56
2018-06-24T01:05:46.822Z,1016.55
2018-06-24T01:06:12.988Z,1016.54
2018-06-24T01:06:39.143Z,1016.56
2018-06-24T01:07:05.283Z,1016.53
2018-06-24T01:07:31.418Z,1016.47
2018-06-24T01:07:57.558Z,1016.49
2018-06-24T01:08:23.701Z,1016.5
2018-06-24T01:08:49.839Z,1016.46
2018-06-24T01:09:16.022Z,1016.45
2018-06-24T01:09:42.158Z,1016.44
2018-06-24T01:10:08.348Z,1016.48
2018-06-24T01:10:34.503Z,1016.44
2018-06-24T01:11:00.653Z,1016.48
2018-06-24T01:11:26.785Z,1016.48
2018-06-24T01:11:52.917Z,1016.47
2018-06-24T01:12:19.077Z,1016.5
2018-06-24T01:12:45.222Z,1016.46
2018-06-24T01:13:11.381Z,1016.46
2018-06-24T01:13:37.546Z,1016.45
2018-06-24T01:14:04.161Z,1016.42
2018-06-24T01:14:29.846Z,1016.44
2018-06-24T01:14:55.981Z,1016.41
2018-06-24T01:15:22.114Z,1016.42
2018-06-24T01:15:48.256Z,1016.43
2018-06-24T01:16:14.390Z,1016.42
2018-06-24T01:16:40.531Z,1016.38
2018-06-24T01:17:06.671Z,1016.4
2018-06-24T01:17:32.838Z,1016.39
2018-06-24T01:17:58.967Z,1016.42
2018-06-24T01:18:25.109Z,1016.38
2018-06-24T01:18:51.248Z,1016.4
2018-06-24T01:19:17.381Z,1016.44
2018-06-24T01:19:43.550Z,1016.41
2018-06-24T01:20:09.686Z,1016.42
2018-06-24T01:20:35.843Z,1016.44
2018-06-24T01:21:02.012Z,1016.45
2018-06-24T01:21:28.167Z,1016.48
2018-06-24T01:21:54.307Z,1016.48
2018-06-24T01:22:20.452Z,1016.41
2018-06-24T01:22:46.586Z,1016.45
2018-06-24T01:23:12.725Z,1016.45
2018-06-24T01:23:38.866Z,1016.45
2018-06-24T01:24:05.005Z,1016.45
2018-06-24T01:24:31.147Z,1016.48
2018-06-24T01:24:57.280Z,1016.46
2018-06-24T01:25:23.422Z,1016.45
2018-06-24T01:25:49.567Z,1016.46
2018-06-24T01:26:15.726Z,1016.44
2018-06-24T01:26:41.910Z,1016.43
2018-06-24T01:27:08.052Z,1016.44
2018-06-24T01:27:34.199Z,1016.44
2018-06-24T01:28:00.332Z,1016.42
2018-06-24T01:28:26.494Z,1016.42
2018-06-24T01:28:52.644Z,1016.43
2018-06-24T01:29:18.778Z,1016.42
2018-06-24T01:29:44.918Z,1016.42
2018-06-24T01:30:11.078Z,1016.48
2018-06-24T01:30:37.242Z,1016.45
2018-06-24T01:31:03.437Z,1016.48
2018-06-24T01:31:29.577Z,1016.45
2018-06-24T01:31:55.711Z,1016.44
2018-06-24T01:32:21.850Z,1016.47
2018-06-24T01:32:48.024Z,1016.51
2018-06-24T01:33:14.163Z,1016.49
2018-06-24T01:33:40.299Z,1016.49
2018-06-24T01:34:06.437Z,1016.48
2018-06-24T01:34:32.573Z,1016.54
2018-06-24T01:34:58.717Z,1016.5
2018-06-24T01:35:24.859Z,1016.48
2018-06-24T01:35:51.015Z,1016.49
2018-06-24T01:36:17.150Z,1016.46
2018-06-24T01:36:43.295Z,1016.46
2018-06-24T01:37:09.432Z,1016.45
2018-06-24T01:37:35.576Z,1016.44
2018-06-24T01:38:01.704Z,1016.41
2018-06-24T01:38:27.846Z,1016.45
2018-06-24T01:38:54.007Z,1016.41
2018-06-24T01:39:20.144Z,1016.41
2018-06-24T01:39:46.287Z,1016.39
2018-06-24T01:40:12.423Z,1016.41
2018-06-24T01:40:38.565Z,1016.4
2018-06-24T01:41:04.704Z,1016.42
2018-06-24T01:41:30.869Z,1016.41
2018-06-24T01:41:57.002Z,1016.38
2018-06-24T01:42:23.193Z,1016.38
2018-06-24T01:42:49.349Z,1016.36
2018-06-24T01:43:15.506Z,1016.37
2018-06-24T01:43:41.650Z,1016.36
2018-06-24T01:44:07.779Z,1016.35
2018-06-24T01:44:33.928Z,1016.36
2018-06-24T01:45:00.079Z,1016.4
2018-06-24T01:45:26.223Z,1016.37
2018-06-24T01:45:52.368Z,1016.4
2018-06-24T01:46:18.509Z,1016.37
2018-06-24T01:46:44.665Z,1016.37
2018-06-24T01:47:10.806Z,1016.38
2018-06-24T01:47:37.084Z,1016.4
2018-06-24T01:48:03.104Z,1016.37
2018-06-24T01:48:29.248Z,1016.34
2018-06-24T01:48:55.385Z,1016.39
2018-06-24T01:49:21.521Z,1016.34
2018-06-24T01:49:47.692Z,1016.36
2018-06-24T01:50:13.831Z,1016.4
2018-06-24T01:50:39.968Z,1016.42
2018-06-24T01:51:06.113Z,1016.43
2018-06-24T01:51:32.271Z,1016.4
2018-06-24T01:51:58.412Z,1016.45
2018-06-24T01:52:24.547Z,1016.43
2018-06-24T01:52:50.701Z,1016.5
2018-06-24T01:53:16.829Z,1016.48
2018-06-24T01:53:42.964Z,1016.45
2018-06-24T01:54:09.102Z,1016.47
2018-06-24T01:54:35.261Z,1016.47
2018-06-24T01:55:01.395Z,1016.47
2018-06-24T01:55:27.538Z,1016.45
2018-06-24T01:55:53.677Z,1016.47
2018-06-24T01:56:19.865Z,1016.49
2018-06-24T01:56:45.997Z,1016.45
2018-06-24T01:57:12.131Z,1016.45
2018-06-24T01:57:38.300Z,1016.48
2018-06-24T01:58:04.445Z,1016.47
2018-06-24T01:58:30.587Z,1016.49
2018-06-24T01:58:56.727Z,1016.48
2018-06-24T01:59:22.890Z,1016.48
2018-06-24T01:59:49.049Z,1016.47
2018-06-24T02:00:15.190Z,1016.52
2018-06-24T02:00:41.335Z,1016.51
2018-06-24T02:01:07.478Z,1016.52
2018-06-24T02:01:33.612Z,1016.53
2018-06-24T02:01:59.755Z,1016.55
2018-06-24T02:02:25.890Z,1016.52
2018-06-24T02:02:52.025Z,1016.53
2018-06-24T02:03:18.165Z,1016.53
2018-06-24T02:03:44.315Z,1016.54
2018-06-24T02:04:10.447Z,1016.52
2018-06-24T02:04:36.587Z,1016.54
2018-06-24T02:05:02.736Z,1016.52
2018-06-24T02:05:28.868Z,1016.53
2018-06-24T02:05:55.009Z,1016.5
2018-06-24T02:06:21.148Z,1016.5
2018-06-24T02:06:47.286Z,1016.46
2018-06-24T02:07:13.426Z,1016.52
2018-06-24T02:07:39.573Z,1016.5
2018-06-24T02:08:05.732Z,1016.5
2018-06-24T02:08:31.865Z,1016.55
2018-06-24T02:08:58.032Z,1016.54
2018-06-24T02:09:24.173Z,1016.53
2018-06-24T02:09:50.305Z,1016.52
2018-06-24T02:10:16.445Z,1016.53
2018-06-24T02:10:42.583Z,1016.51
2018-06-24T02:11:08.750Z,1016.53
2018-06-24T02:11:34.889Z,1016.51
2018-06-24T02:12:01.029Z,1016.54
2018-06-24T02:12:27.196Z,1016.51
2018-06-24T02:12:53.337Z,1016.49
2018-06-24T02:13:19.476Z,1016.53
2018-06-24T02:13:45.618Z,1016.48
2018-06-24T02:14:11.753Z,1016.49
2018-06-24T02:14:37.917Z,1016.46
2018-06-24T02:15:04.085Z,1016.47
2018-06-24T02:15:30.224Z,1016.45
2018-06-24T02:15:56.364Z,1016.47
2018-06-24T02:16:22.501Z,1016.46
2018-06-24T02:16:48.687Z,1016.44
2018-06-24T02:17:14.823Z,1016.44
2018-06-24T02:17:40.968Z,1016.45
2018-06-24T02:18:07.123Z,1016.45
2018-06-24T02:18:33.261Z,1016.46
2018-06-24T02:18:59.394Z,1016.42
2018-06-24T02:19:25.537Z,1016.41
2018-06-24T02:19:51.667Z,1016.39
2018-06-24T02:20:17.837Z,1016.39
2018-06-24T02:20:43.970Z,1016.37
2018-06-24T02:21:10.115Z,1016.39
2018-06-24T02:21:36.260Z,1016.35
2018-06-24T02:22:02.424Z,1016.35
2018-06-24T02:22:28.558Z,1016.33
2018-06-24T02:22:54.696Z,1016.32
2018-06-24T02:23:20.836Z,1016.28
2018-06-24T02:23:46.993Z,1016.25
2018-06-24T02:24:13.139Z,1016.27
2018-06-24T02:24:39.289Z,1016.26
2018-06-24T02:25:05.436Z,1016.27
2018-06-24T02:25:31.574Z,1016.26
2018-06-24T02:25:57.738Z,1016.25
2018-06-24T02:26:23.882Z,1016.26
2018-06-24T02:26:50.016Z,1016.28
2018-06-24T02:27:16.161Z,1016.26
2018-06-24T02:27:42.293Z,1016.28
2018-06-24T02:28:08.436Z,1016.25
2018-06-24T02:28:34.581Z,1016.27
2018-06-24T02:29:00.723Z,1016.27
2018-06-24T02:29:26.862Z,1016.26
2018-06-24T02:29:53.005Z,1016.27
2018-06-24T02:30:19.161Z,1016.28
2018-06-24T02:30:45.327Z,1016.22
2018-06-24T02:31:11.493Z,1016.22
2018-06-24T02:31:37.668Z,1016.2
2018-06-24T02:32:03.825Z,1016.19
2018-06-24T02:32:30.009Z,1016.2
2018-06-24T02:32:56.148Z,1016.22
2018-06-24T02:33:22.302Z,1016.25
2018-06-24T02:33:48.471Z,1016.26
2018-06-24T02:34:14.636Z,1016.3
2018-06-24T02:34:40.767Z,1016.3
2018-06-24T02:35:06.905Z,1016.27
2018-06-24T02:35:33.067Z,1016.3
2018-06-24T02:35:59.256Z,1016.27
2018-06-24T02:36:25.416Z,1016.29
2018-06-24T02:36:51.557Z,1016.27
2018-06-24T02:37:17.694Z,1016.27
2018-06-24T02:37:43.833Z,1016.25
2018-06-24T02:38:10.031Z,1016.24
2018-06-24T02:38:36.186Z,1016.25
2018-06-24T02:39:02.349Z,1016.29
2018-06-24T02:39:28.489Z,1016.26
2018-06-24T02:39:54.622Z,1016.22
2018-06-24T02:40:20.768Z,1016.2
2018-06-24T02:40:46.903Z,1016.22
2018-06-24T02:41:13.090Z,1016.24
2018-06-24T02:41:39.322Z,1016.23
2018-06-24T02:42:05.463Z,1016.24
2018-06-24T02:42:31.591Z,1016.22
2018-06-24T02:42:57.728Z,1016.24
2018-06-24T02:43:23.874Z,1016.25
2018-06-24T02:43:50.034Z,1016.2
2018-06-24T02:44:16.247Z,1016.22
2018-06-24T02:44:42.379Z,1016.21
2018-06-24T02:45:08.550Z,1016.22
2018-06-24T02:45:34.706Z,1016.17
2018-06-24T02:46:00.865Z,1016.24
2018-06-24T02:46:26.997Z,1016.19
2018-06-24T02:46:53.180Z,1016.23
2018-06-24T02:47:19.370Z,1016.21
2018-06-24T02:47:45.532Z,1016.21
2018-06-24T02:48:11.693Z,1016.2
2018-06-24T02:48:37.901Z,1016.21
2018-06-24T02:49:04.043Z,1016.22
2018-06-24T02:49:30.205Z,1016.19
2018-06-24T02:49:56.343Z,1016.2
2018-06-24T02:50:22.482Z,1016.2
2018-06-24T02:50:48.630Z,1016.25
2018-06-24T02:51:14.794Z,1016.22
2018-06-24T02:51:40.976Z,1016.26
2018-06-24T02:52:07.141Z,1016.25
2018-06-24T02:52:33.276Z,1016.24
2018-06-24T02:52:59.408Z,1016.24
2018-06-24T02:53:25.546Z,1016.24
2018-06-24T02:53:51.699Z,1016.23
2018-06-24T02:54:17.863Z,1016.27
2018-06-24T02:54:44.022Z,1016.26
2018-06-24T02:55:10.207Z,1016.32
2018-06-24T02:55:36.351Z,1016.27
2018-06-24T02:56:02.487Z,1016.27
2018-06-24T02:56:28.642Z,1016.28
2018-06-24T02:56:54.812Z,1016.3
2018-06-24T02:57:21.027Z,1016.28
2018-06-24T02:57:47.187Z,1016.3
2018-06-24T02:58:13.352Z,1016.24
2018-06-24T02:58:39.513Z,1016.27
2018-06-24T02:59:05.674Z,1016.27
2018-06-24T02:59:31.806Z,1016.27
2018-06-24T02:59:57.951Z,1016.25
2018-06-24T03:00:24.109Z,1016.26
2018-06-24T03:00:50.287Z,1016.25
2018-06-24T03:01:16.444Z,1016.29
2018-06-24T03:01:42.605Z,1016.27
2018-06-24T03:02:08.768Z,1016.28
2018-06-24T03:02:34.936Z,1016.31
2018-06-24T03:03:01.093Z,1016.26
2018-06-24T03:03:27.261Z,1016.29
2018-06-24T03:03:53.426Z,1016.26
2018-06-24T03:04:19.604Z,1016.25
2018-06-24T03:04:45.771Z,1016.29
2018-06-24T03:05:11.956Z,1016.32
2018-06-24T03:05:38.097Z,1016.31
2018-06-24T03:06:04.238Z,1016.3
2018-06-24T03:06:30.402Z,1016.32
2018-06-24T03:06:56.539Z,1016.3
2018-06-24T03:07:22.672Z,1016.32
2018-06-24T03:07:48.839Z,1016.3
2018-06-24T03:08:14.981Z,1016.33
2018-06-24T03:08:41.150Z,1016.32
2018-06-24T03:09:07.287Z,1016.33
2018-06-24T03:09:33.451Z,1016.32
2018-06-24T03:09:59.611Z,1016.29
2018-06-24T03:10:25.778Z,1016.26
2018-06-24T03:10:51.940Z,1016.27
2018-06-24T03:11:18.081Z,1016.29
2018-06-24T03:11:44.266Z,1016.28
2018-06-24T03:12:10.428Z,1016.26
2018-06-24T03:12:36.599Z,1016.27
2018-06-24T03:13:02.737Z,1016.26
2018-06-24T03:13:28.925Z,1016.27
2018-06-24T03:13:55.085Z,1016.27
2018-06-24T03:14:21.219Z,1016.26
2018-06-24T03:14:47.383Z,1016.27
2018-06-24T03:15:13.519Z,1016.26
2018-06-24T03:15:39.663Z,1016.29
2018-06-24T03:16:05.788Z,1016.31
2018-06-24T03:16:31.950Z,1016.28
2018-06-24T03:16:58.134Z,1016.27
2018-06-24T03:17:24.280Z,1016.28
2018-06-24T03:17:50.418Z,1016.3
2018-06-24T03:18:16.609Z,1016.32
2018-06-24T03:18:42.754Z,1016.35
2018-06-24T03:19:08.899Z,1016.34
2018-06-24T03:19:35.032Z,1016.35
2018-06-24T03:20:01.191Z,1016.3
2018-06-24T03:20:27.335Z,1016.35
2018-06-24T03:20:53.541Z,1016.31
2018-06-24T03:21:19.676Z,1016.33
2018-06-24T03:21:45.823Z,1016.36
2018-06-24T03:22:11.958Z,1016.32
2018-06-24T03:22:38.102Z,1016.3
2018-06-24T03:23:04.235Z,1016.33
2018-06-24T03:23:30.378Z,1016.32
2018-06-24T03:23:56.535Z,1016.34
2018-06-24T03:24:22.690Z,1016.32
2018-06-24T03:24:48.834Z,1016.33
2018-06-24T03:25:14.974Z,1016.36
2018-06-24T03:25:41.137Z,1016.37
2018-06-24T03:26:07.274Z,1016.3
2018-06-24T03:26:33.413Z,1016.31
2018-06-24T03:26:59.546Z,1016.31
2018-06-24T03:27:25.687Z,1016.29
2018-06-24T03:27:51.821Z,1016.31
2018-06-24T03:28:17.966Z,1016.27
2018-06-24T03:28:44.112Z,1016.27
2018-06-24T03:29:10.264Z,1016.28
2018-06-24T03:29:36.417Z,1016.29
2018-06-24T03:30:02.563Z,1016.25
2018-06-24T03:30:28.718Z,1016.25
2018-06-24T03:30:54.892Z,1016.26
2018-06-24T03:31:21.077Z,1016.23
2018-06-24T03:31:47.220Z,1016.26
2018-06-24T03:32:13.427Z,1016.23
2018-06-24T03:32:39.574Z,1016.17
2018-06-24T03:33:05.733Z,1016.24
2018-06-24T03:33:31.877Z,1016.23
2018-06-24T03:33:58.016Z,1016.22
2018-06-24T03:34:24.157Z,1016.24
2018-06-24T03:34:50.299Z,1016.23
2018-06-24T03:35:16.469Z,1016.25
2018-06-24T03:35:42.608Z,1016.21
2018-06-24T03:36:08.751Z,1016.21
2018-06-24T03:36:34.888Z,1016.25
2018-06-24T03:37:01.025Z,1016.23
2018-06-24T03:37:27.162Z,1016.23
2018-06-24T03:37:53.296Z,1016.25
2018-06-24T03:38:19.435Z,1016.23
2018-06-24T03:38:45.574Z,1016.27
2018-06-24T03:39:11.705Z,1016.27
2018-06-24T03:39:37.846Z,1016.25
2018-06-24T03:40:03.982Z,1016.26
2018-06-24T03:40:30.158Z,1016.25
2018-06-24T03:40:56.305Z,1016.27
2018-06-24T03:41:22.463Z,1016.29
2018-06-24T03:41:48.601Z,1016.28
2018-06-24T03:42:14.743Z,1016.32
2018-06-24T03:42:40.879Z,1016.27
2018-06-24T03:43:07.045Z,1016.3
2018-06-24T03:43:33.192Z,1016.33
2018-06-24T03:43:59.329Z,1016.32
2018-06-24T03:44:25.465Z,1016.33
2018-06-24T03:44:51.603Z,1016.31
2018-06-24T03:45:17.742Z,1016.33
2018-06-24T03:45:43.914Z,1016.33
2018-06-24T03:46:10.058Z,1016.32
2018-06-24T03:46:36.194Z,1016.33
2018-06-24T03:47:02.328Z,1016.32
2018-06-24T03:47:28.470Z,1016.32
2018-06-24T03:47:54.635Z,1016.3
2018-06-24T03:48:20.776Z,1016.33
2018-06-24T03:48:46.910Z,1016.31
2018-06-24T03:49:13.125Z,1016.31
2018-06-24T03:49:39.264Z,1016.32
2018-06-24T03:50:05.407Z,1016.32
2018-06-24T03:50:31.538Z,1016.29
2018-06-24T03:50:57.712Z,1016.28
2018-06-24T03:51:23.846Z,1016.27
2018-06-24T03:51:49.990Z,1016.28
2018-06-24T03:52:16.164Z,1016.27
2018-06-24T03:52:42.300Z,1016.31
2018-06-24T03:53:08.459Z,1016.29
2018-06-24T03:53:34.600Z,1016.31
2018-06-24T03:54:00.742Z,1016.31
2018-06-24T03:54:26.887Z,1016.32
2018-06-24T03:54:53.031Z,1016.29
2018-06-24T03:55:19.188Z,1016.29
2018-06-24T03:55:45.327Z,1016.31
2018-06-24T03:56:11.752Z,1016.29
2018-06-24T03:56:37.605Z,1016.28
2018-06-24T03:57:03.776Z,1016.28
2018-06-24T03:57:29.917Z,1016.27
2018-06-24T03:57:56.082Z,1016.23
2018-06-24T03:58:22.196Z,1016.24
2018-06-24T03:58:48.338Z,1016.26
2018-06-24T03:59:14.483Z,1016.25
2018-06-24T03:59:40.623Z,1016.23
2018-06-24T04:00:06.762Z,1016.28
2018-06-24T04:00:32.900Z,1016.28
2018-06-24T04:00:59.034Z,1016.24
2018-06-24T04:01:25.167Z,1016.24
2018-06-24T04:01:51.308Z,1016.3
2018-06-24T04:02:17.472Z,1016.26
2018-06-24T04:02:43.609Z,1016.24
2018-06-24T04:03:09.782Z,1016.27
2018-06-24T04:03:35.890Z,1016.27
2018-06-24T04:04:02.032Z,1016.26
2018-06-24T04:04:28.165Z,1016.23
2018-06-24T04:04:54.319Z,1016.2
2018-06-24T04:05:20.481Z,1016.22
2018-06-24T04:05:46.644Z,1016.19
2018-06-24T04:06:12.784Z,1016.17
2018-06-24T04:06:38.946Z,1016.22
2018-06-24T04:07:05.093Z,1016.19
2018-06-24T04:07:31.231Z,1016.21
2018-06-24T04:07:57.383Z,1016.23
2018-06-24T04:08:23.526Z,1016.22
2018-06-24T04:08:49.663Z,1016.21
2018-06-24T04:09:15.795Z,1016.26
2018-06-24T04:09:41.934Z,1016.25
2018-06-24T04:10:08.083Z,1016.26
2018-06-24T04:10:34.221Z,1016.22
2018-06-24T04:11:00.371Z,1016.24
2018-06-24T04:11:26.556Z,1016.23
2018-06-24T04:11:52.753Z,1016.23
2018-06-24T04:12:18.886Z,1016.24
2018-06-24T04:12:45.030Z,1016.25
2018-06-24T04:13:11.171Z,1016.22
2018-06-24T04:13:37.316Z,1016.23
2018-06-24T04:14:03.457Z,1016.2
2018-06-24T04:14:29.589Z,1016.16
2018-06-24T04:14:55.736Z,1016.22
2018-06-24T04:15:21.875Z,1016.18
2018-06-24T04:15:48.042Z,1016.19
2018-06-24T04:16:14.181Z,1016.19
2018-06-24T04:16:40.326Z,1016.19
2018-06-24T04:17:06.459Z,1016.23
2018-06-24T04:17:32.599Z,1016.23
2018-06-24T04:17:58.759Z,1016.22
2018-06-24T04:18:24.900Z,1016.21
2018-06-24T04:18:51.037Z,1016.19
2018-06-24T04:19:17.175Z,1016.22
2018-06-24T04:19:43.319Z,1016.25
2018-06-24T04:20:09.466Z,1016.23
2018-06-24T04:20:35.598Z,1016.26
2018-06-24T04:21:01.735Z,1016.23
2018-06-24T04:21:27.880Z,1016.26
2018-06-24T04:21:54.048Z,1016.25
2018-06-24T04:22:20.205Z,1016.26
2018-06-24T04:22:46.341Z,1016.28
2018-06-24T04:23:12.477Z,1016.28
2018-06-24T04:23:38.625Z,1016.28
2018-06-24T04:24:04.757Z,1016.24
2018-06-24T04:24:30.913Z,1016.28
2018-06-24T04:24:57.057Z,1016.27
2018-06-24T04:25:23.214Z,1016.29
2018-06-24T04:25:49.484Z,1016.28
2018-06-24T04:26:15.563Z,1016.29
2018-06-24T04:26:41.756Z,1016.3
2018-06-24T04:27:07.862Z,1016.27
2018-06-24T04:27:34.011Z,1016.3
2018-06-24T04:28:00.156Z,1016.28
2018-06-24T04:28:26.284Z,1016.28
2018-06-24T04:28:52.420Z,1016.26
2018-06-24T04:29:18.562Z,1016.27
2018-06-24T04:29:44.746Z,1016.28
2018-06-24T04:30:10.891Z,1016.27
2018-06-24T04:30:37.032Z,1016.29
2018-06-24T04:31:03.171Z,1016.27
2018-06-24T04:31:29.313Z,1016.27
2018-06-24T04:31:55.454Z,1016.29
2018-06-24T04:32:21.595Z,1016.29
2018-06-24T04:32:47.730Z,1016.26
2018-06-24T04:33:13.866Z,1016.28
2018-06-24T04:33:40.013Z,1016.29
2018-06-24T04:34:06.168Z,1016.28
2018-06-24T04:34:32.315Z,1016.3
2018-06-24T04:34:58.455Z,1016.31
2018-06-24T04:35:24.592Z,1016.28
2018-06-24T04:35:50.729Z,1016.3
2018-06-24T04:36:16.896Z,1016.33
2018-06-24T04:36:43.034Z,1016.31
2018-06-24T04:37:09.174Z,1016.32
2018-06-24T04:37:35.309Z,1016.34
2018-06-24T04:38:01.468Z,1016.32
2018-06-24T04:38:27.609Z,1016.33
2018-06-24T04:38:53.746Z,1016.35
2018-06-24T04:39:19.889Z,1016.36
2018-06-24T04:39:46.035Z,1016.37
2018-06-24T04:40:12.167Z,1016.38
2018-06-24T04:40:38.313Z,1016.34
2018-06-24T04:41:04.472Z,1016.34
2018-06-24T04:41:30.598Z,1016.32
2018-06-24T04:41:56.735Z,1016.35
2018-06-24T04:42:22.881Z,1016.34
2018-06-24T04:42:49.010Z,1016.37
2018-06-24T04:43:15.174Z,1016.36
2018-06-24T04:43:41.342Z,1016.36
2018-06-24T04:44:07.503Z,1016.36
2018-06-24T04:44:33.645Z,1016.38
2018-06-24T04:44:59.779Z,1016.37
2018-06-24T04:45:25.964Z,1016.39
2018-06-24T04:45:52.104Z,1016.39
2018-06-24T04:46:18.245Z,1016.36
2018-06-24T04:46:44.402Z,1016.39
2018-06-24T04:47:10.540Z,1016.42
2018-06-24T04:47:36.677Z,1016.37
2018-06-24T04:48:02.815Z,1016.4
2018-06-24T04:48:28.962Z,1016.44
2018-06-24T04:48:55.106Z,1016.45
2018-06-24T04:49:21.243Z,1016.47
2018-06-24T04:49:47.382Z,1016.47
2018-06-24T04:50:13.525Z,1016.47
2018-06-24T04:50:39.685Z,1016.46
2018-06-24T04:51:05.825Z,1016.48
2018-06-24T04:51:31.990Z,1016.45
2018-06-24T04:51:58.149Z,1016.49
2018-06-24T04:52:24.279Z,1016.46
2018-06-24T04:52:50.419Z,1016.47
2018-06-24T04:53:16.553Z,1016.5
2018-06-24T04:53:42.708Z,1016.49
2018-06-24T04:54:08.878Z,1016.47
2018-06-24T04:54:35.046Z,1016.5
2018-06-24T04:55:01.185Z,1016.49
2018-06-24T04:55:27.345Z,1016.53
2018-06-24T04:55:53.513Z,1016.52
2018-06-24T04:56:19.648Z,1016.52
2018-06-24T04:56:45.812Z,1016.48
2018-06-24T04:57:11.953Z,1016.48
2018-06-24T04:57:38.102Z,1016.51
2018-06-24T04:58:04.262Z,1016.49
2018-06-24T04:58:30.422Z,1016.48
2018-06-24T04:58:56.581Z,1016.5
2018-06-24T04:59:22.752Z,1016.51
2018-06-24T04:59:48.880Z,1016.52
2018-06-24T05:00:15.045Z,1016.53
2018-06-24T05:00:41.184Z,1016.52
2018-06-24T05:01:07.327Z,1016.51
2018-06-24T05:01:33.462Z,1016.52
2018-06-24T05:01:59.602Z,1016.56
2018-06-24T05:02:25.744Z,1016.53
2018-06-24T05:02:51.885Z,1016.54
2018-06-24T05:03:18.029Z,1016.58
2018-06-24T05:03:44.174Z,1016.55
2018-06-24T05:04:10.311Z,1016.55
2018-06-24T05:04:36.456Z,1016.56
2018-06-24T05:05:02.596Z,1016.56
2018-06-24T05:05:28.736Z,1016.54
2018-06-24T05:05:54.875Z,1016.59
2018-06-24T05:06:21.066Z,1016.58
2018-06-24T05:06:47.176Z,1016.59
2018-06-24T05:07:13.339Z,1016.61
2018-06-24T05:07:39.485Z,1016.62
2018-06-24T05:08:05.629Z,1016.63
2018-06-24T05:08:31.787Z,1016.59
2018-06-24T05:08:57.918Z,1016.61
2018-06-24T05:09:24.091Z,1016.61
2018-06-24T05:09:50.232Z,1016.6
2018-06-24T05:10:16.393Z,1016.61
2018-06-24T05:10:42.530Z,1016.6
2018-06-24T05:11:08.697Z,1016.6
2018-06-24T05:11:34.833Z,1016.63
2018-06-24T05:12:00.976Z,1016.58
2018-06-24T05:12:27.107Z,1016.62
2018-06-24T05:12:53.252Z,1016.64
2018-06-24T05:13:19.391Z,1016.62
2018-06-24T05:13:45.534Z,1016.64
2018-06-24T05:14:11.675Z,1016.63
2018-06-24T05:14:37.816Z,1016.63
2018-06-24T05:15:03.954Z,1016.66
2018-06-24T05:15:30.091Z,1016.68
2018-06-24T05:15:56.235Z,1016.64
2018-06-24T05:16:22.425Z,1016.65
2018-06-24T05:16:48.563Z,1016.66
2018-06-24T05:17:14.707Z,1016.64
2018-06-24T05:17:40.873Z,1016.65